Contact Us:
Email: info@sawbill.com
Phone: (218)663-7150
Fax: (218)663-7980
Mail: 4620 Sawbill Trail
Box 2129
Tofte, MN 55615


Powered by
Movable Type 3.15
 
Sawbill Weather History Archives: November 2005
Current Sawbill Weather History | « October 2005 | December 2005 »


Date

High
Temperature

Low
Temperature

Barometric
Pressure

Relative
Humidity 7AM

9 AM
Temperature

Moisture

Snow

11/30/05 22 12 29.99 69% 13 Trace Trace
11/29/05 21 9 29.95 67% 15 .02" 1"
11/28/05 39 21 29.36 76% 21 1" 1.5"
11/27/05 38 30 29.55 88% 37 Trace
11/26/05 30 12 29.75 83% 30 0
11/25/05 29 0 29.93 67% 12 .08" 2.5"
11/24/05 16 0 29.98 67% 10 Trace Trace
11/23/05 34 -2 29.78 60% 0 .02" .5"
11/22/05 31 19 29.24 83% 30 .3" 3.5"
11/21/05 39 17 29.94 70% 20 Trace Trace
11/20/05 35 31 29.79 85% 34 0
11/19/05 36 26 29.79 78% 34 0
11/18/05 34 18 29.70 87% 34 .22" 2"
11/17/05 20 4 29.92 76% 18 Trace Trace
11/16/05 29 4 30.26 68% 4 Trace Trace
11/15/05 38 29 29.54 80% 29 .35" 3.5"
11/14/05 34 21 30.05 84% 34 0
11/13/05 35 21 30.19 77% 21 0
11/12/05 51 33 29.22 87% 33 1.33" 3.5"
11/11/05 50 31 29.66 79% 35 0
11/10/05 42 27 29.86 84% 31 0
11/9/05 35 30 30.02 71% 31 .05" .5"
11/8/05 43 34 29.35 86% 34 .48" .5"
11/7/05 50 34 30.09 83% 36 0
11/6/05 42 32 29.90 82% 36 0
11/5/05 38 36 29.86 83% 36 0
11/4/05 38 34 29.92 85% 35 .03" Trace
11/3/05 43 35 29.72 83% 36 0
11/2/05 44 36 29.82 80% 42 0
11/1/05 51 36 29.90 82% 36 .03"
 


Home I Trip Planning I Rentals and Outfitting I Reservations I Campgrounds I Sawbill Store I Sawbill News I Contact

© 1997 - 2017, Sawbill Canoe Outfitters, Inc. I Privacy Policy